Time;durP1;ratioP1;P1;durP2;ratioP2;P2;SDS_P1;SDS_P2;PMS_P1;PMS_P2;Temp;Humidity;BMP_temperature;BMP_pressure;BME280_temperature;BME280_humidity;BME280_pressure;Samples;Min_cycle;Max_cycle;Signal;HPM_P1;HPM_P2
2021/05/11 00:00:40;;;;;;;1.95;1.23;;;17.60;99.90;;;;;;4192607;28;20040;-71
2021/05/11 00:02:40;;;;;;;2.38;1.30;;;17.70;99.90;;;;;;4193724;28;20487;-71
2021/05/11 00:04:41;;;;;;;1.55;1.00;;;17.60;99.90;;;;;;4193714;28;20474;-71
2021/05/11 00:06:42;;;;;;;1.67;1.15;;;17.70;99.90;;;;;;4194445;28;20049;-71
2021/05/11 00:08:43;;;;;;;2.38;1.17;;;17.70;99.90;;;;;;4194143;28;20025;-71
2021/05/11 00:10:43;;;;;;;2.08;1.15;;;17.70;99.90;;;;;;4194400;28;20059;-71
2021/05/11 00:12:46;;;;;;;1.95;1.08;;;17.70;99.90;;;;;;4193707;28;20056;-71
2021/05/11 00:14:46;;;;;;;1.73;1.10;;;17.70;99.90;;;;;;4194114;28;20029;-71
2021/05/11 00:16:47;;;;;;;2.13;1.20;;;17.80;99.90;;;;;;4194130;28;20082;-72
2021/05/11 00:18:48;;;;;;;3.30;1.27;;;17.80;99.90;;;;;;4193910;28;20043;-72
2021/05/11 00:20:48;;;;;;;1.63;1.20;;;17.80;99.90;;;;;;4193498;28;20119;-71
2021/05/11 00:22:49;;;;;;;2.03;1.13;;;17.80;99.90;;;;;;4193807;28;20052;-71
2021/05/11 00:24:49;;;;;;;2.03;1.50;;;17.90;99.90;;;;;;4191660;28;20453;-72
2021/05/11 00:26:50;;;;;;;3.15;1.58;;;17.90;99.90;;;;;;4193593;28;20041;-71
2021/05/11 00:28:51;;;;;;;2.20;1.17;;;17.90;99.90;;;;;;4193636;28;20107;-71
2021/05/11 00:30:53;;;;;;;2.38;1.55;;;17.90;99.90;;;;;;4193917;28;20032;-72
2021/05/11 00:32:53;;;;;;;2.63;1.42;;;17.80;99.90;;;;;;4193556;28;20043;-71
2021/05/11 00:34:54;;;;;;;3.60;1.88;;;17.90;99.90;;;;;;4193426;28;20127;-72
2021/05/11 00:36:54;;;;;;;2.65;1.70;;;17.80;99.90;;;;;;4191879;28;20158;-71
2021/05/11 00:38:55;;;;;;;3.47;1.90;;;17.80;99.90;;;;;;4191277;28;20115;-72
2021/05/11 00:40:56;;;;;;;3.28;1.70;;;17.70;99.90;;;;;;4193522;28;20056;-72
2021/05/11 00:42:56;;;;;;;2.47;1.33;;;17.70;99.90;;;;;;4193271;28;20040;-71
2021/05/11 00:44:57;;;;;;;1.95;1.50;;;17.60;99.90;;;;;;4191278;28;20033;-71
2021/05/11 00:47:00;;;;;;;2.85;1.52;;;17.60;99.90;;;;;;4193310;28;20040;-72
2021/05/11 00:49:01;;;;;;;2.42;1.20;;;17.50;99.90;;;;;;4192543;28;20047;-71
2021/05/11 00:51:03;;;;;;;3.83;1.35;;;17.50;99.90;;;;;;4192882;28;20458;-71
2021/05/11 00:53:04;;;;;;;2.22;1.38;;;17.50;99.90;;;;;;4193034;28;20036;-71
2021/05/11 00:55:06;;;;;;;2.08;1.38;;;17.50;99.90;;;;;;4174593;28;20650;-71
2021/05/11 00:57:06;;;;;;;5.47;1.70;;;17.50;99.90;;;;;;4181102;28;20056;-71
2021/05/11 00:59:13;;;;;;;1.85;0.93;;;17.50;99.90;;;;;;4192920;28;20052;-71
2021/05/11 01:01:13;;;;;;;2.90;1.50;;;17.50;99.90;;;;;;4193236;28;20618;-71
2021/05/11 01:03:14;;;;;;;2.85;1.50;;;17.50;99.90;;;;;;4192967;28;20109;-71
2021/05/11 01:05:15;;;;;;;2.22;1.40;;;17.50;99.90;;;;;;4192389;28;20056;-71
2021/05/11 01:07:15;;;;;;;2.20;1.02;;;17.40;99.90;;;;;;4191409;28;20033;-70
2021/05/11 01:09:16;;;;;;;2.95;1.35;;;17.40;99.90;;;;;;4190927;28;20082;-71
2021/05/11 01:11:17;;;;;;;1.90;1.10;;;17.30;99.90;;;;;;4192724;28;20104;-70
2021/05/11 01:13:18;;;;;;;3.03;1.20;;;17.30;99.90;;;;;;4193204;28;20028;-71
2021/05/11 01:15:18;;;;;;;2.30;1.10;;;17.30;99.90;;;;;;4190343;28;20067;-71
2021/05/11 01:17:24;;;;;;;1.75;1.00;;;17.30;99.90;;;;;;4192650;28;20336;-71
2021/05/11 01:19:50;;;;;;;3.30;1.35;;;17.30;99.90;;;;;;4192223;28;20025;-71
2021/05/11 01:22:08;;;;;;;2.40;1.15;;;17.20;99.90;;;;;;4192442;28;20037;-70
2021/05/11 01:24:12;;;;;;;4.25;1.27;;;17.20;99.90;;;;;;4190140;28;20037;-71
2021/05/11 01:26:24;;;;;;;2.10;1.08;;;17.20;99.90;;;;;;4175790;28;20056;-71
2021/05/11 01:28:40;;;;;;;2.83;1.40;;;17.20;99.90;;;;;;4183687;28;20028;-71
2021/05/11 01:46:49;;;;;;;3.13;1.63;;;16.80;99.90;;;;;;4191658;28;20044;-71
2021/05/11 01:48:59;;;;;;;2.97;1.13;;;16.70;99.90;;;;;;4191200;28;20115;-71
2021/05/11 01:55:47;;;;;;;2.22;1.13;;;16.70;99.90;;;;;;4183103;28;20609;-71
2021/05/11 01:58:22;;;;;;;2.85;1.23;;;16.60;99.90;;;;;;4187202;28;20032;-71
2021/05/11 02:23:09;;;;;;;2.17;1.38;;;16.00;99.90;;;;;;4192066;28;20048;-71
2021/05/11 02:25:13;;;;;;;5.15;1.65;;;16.00;99.90;;;;;;4191921;28;20086;-70
2021/05/11 02:27:14;;;;;;;4.43;1.52;;;16.00;99.90;;;;;;4191869;28;20492;-71
2021/05/11 02:29:14;;;;;;;4.95;1.65;;;15.90;99.90;;;;;;4192020;28;20051;-71
2021/05/11 02:31:15;;;;;;;2.78;1.60;;;15.90;99.90;;;;;;4190037;28;20063;-71
2021/05/11 02:33:16;;;;;;;4.25;1.42;;;15.80;99.90;;;;;;4192056;28;20021;-71
2021/05/11 02:35:18;;;;;;;2.58;1.40;;;15.70;99.90;;;;;;4190153;28;20475;-71
2021/05/11 02:37:19;;;;;;;4.53;1.73;;;15.70;99.90;;;;;;4191973;28;20037;-71
2021/05/11 02:39:19;;;;;;;2.17;1.33;;;15.70;99.90;;;;;;4191992;28;20986;-71
2021/05/11 02:41:20;;;;;;;3.88;1.50;;;15.70;99.90;;;;;;4192027;28;20388;-71
2021/05/11 02:43:32;;;;;;;2.75;1.63;;;15.70;99.90;;;;;;4191407;28;20032;-71
2021/05/11 02:45:34;;;;;;;2.58;1.30;;;15.70;99.90;;;;;;4192658;28;20045;-71
2021/05/11 02:47:46;;;;;;;5.40;1.33;;;15.70;99.90;;;;;;4195311;28;20460;-71
2021/05/11 02:49:49;;;;;;;2.58;1.40;;;15.80;99.90;;;;;;4195286;28;20033;-71
2021/05/11 02:51:49;;;;;;;2.35;1.42;;;15.80;99.90;;;;;;4195207;28;20112;-71
2021/05/11 02:53:50;;;;;;;4.15;1.40;;;15.90;99.90;;;;;;4195063;28;20055;-71
2021/05/11 02:55:51;;;;;;;4.40;1.40;;;15.90;99.90;;;;;;4194937;28;20489;-71
2021/05/11 02:57:54;;;;;;;3.25;1.60;;;15.90;99.90;;;;;;4195329;28;20029;-71
2021/05/11 02:59:54;;;;;;;2.15;1.30;;;15.80;99.90;;;;;;4194724;28;20132;-71
2021/05/11 03:01:55;;;;;;;3.10;1.30;;;15.90;99.90;;;;;;4195153;28;20040;-71
2021/05/11 03:03:56;;;;;;;2.00;1.30;;;15.80;99.90;;;;;;4194635;28;20029;-71
2021/05/11 03:05:58;;;;;;;2.78;1.55;;;15.80;99.90;;;;;;4192978;28;20028;-71
2021/05/11 03:07:58;;;;;;;2.67;1.53;;;15.90;99.90;;;;;;4195438;28;20033;-71
2021/05/11 03:09:59;;;;;;;3.35;1.23;;;15.90;99.90;;;;;;4193272;28;20415;-71
2021/05/11 03:11:59;;;;;;;2.58;1.40;;;15.90;99.90;;;;;;4192832;28;20037;-71
2021/05/11 03:14:00;;;;;;;2.70;1.50;;;16.00;99.90;;;;;;4195112;28;20040;-71
2021/05/11 03:16:01;;;;;;;3.00;1.20;;;15.90;99.90;;;;;;4194009;28;20044;-70
2021/05/11 03:18:01;;;;;;;2.55;1.35;;;16.00;99.90;;;;;;4192927;28;20028;-71
2021/05/11 03:20:06;;;;;;;2.55;1.45;;;16.00;99.90;;;;;;4192847;28;20126;-71
2021/05/11 03:22:08;;;;;;;3.20;1.55;;;16.00;99.90;;;;;;4195068;28;20127;-71
2021/05/11 03:24:10;;;;;;;2.50;1.33;;;16.00;99.90;;;;;;4192870;28;20129;-71
2021/05/11 03:26:10;;;;;;;2.25;1.30;;;16.00;99.90;;;;;;4194470;28;20737;-71
2021/05/11 03:28:11;;;;;;;1.60;1.08;;;16.00;99.90;;;;;;4194479;28;20044;-71
2021/05/11 03:30:12;;;;;;;2.38;1.45;;;16.00;99.90;;;;;;4192616;28;20044;-71
2021/05/11 03:32:13;;;;;;;3.00;1.55;;;16.00;99.90;;;;;;4193870;28;20071;-71
2021/05/11 03:34:14;;;;;;;2.88;1.30;;;16.00;99.90;;;;;;4194349;28;20048;-71
2021/05/11 03:36:14;;;;;;;4.90;1.98;;;16.00;99.90;;;;;;4193565;28;20376;-71
2021/05/11 03:38:15;;;;;;;6.10;2.13;;;16.00;99.90;;;;;;4193105;28;20111;-71
2021/05/11 03:40:16;;;;;;;3.92;1.90;;;15.90;99.90;;;;;;4194228;28;20353;-71
2021/05/11 03:42:27;;;;;;;3.15;1.40;;;16.00;99.90;;;;;;4191835;28;20040;-71
2021/05/11 03:44:31;;;;;;;4.80;1.90;;;15.90;99.90;;;;;;4194076;28;20028;-71
2021/05/11 03:46:34;;;;;;;2.03;1.40;;;15.90;99.90;;;;;;4191910;28;20120;-71
2021/05/11 03:48:34;;;;;;;;;;;15.90;99.90;;;;;;4176350;28;20210;-71
2021/05/11 03:50:35;;;;;;;3.85;1.65;;;16.00;99.90;;;;;;4192833;28;20395;-71
2021/05/11 03:52:35;;;;;;;3.67;1.98;;;15.90;99.90;;;;;;4194041;28;20460;-71
2021/05/11 03:54:36;;;;;;;2.40;1.63;;;15.90;99.90;;;;;;4193815;28;20044;-71
2021/05/11 03:56:37;;;;;;;3.17;1.75;;;15.90;99.90;;;;;;4193580;28;20033;-71
2021/05/11 03:58:38;;;;;;;2.28;1.80;;;16.00;99.90;;;;;;4193640;28;20050;-71
2021/05/11 04:00:40;;;;;;;3.45;1.60;;;15.90;99.90;;;;;;4175005;28;20037;-71
2021/05/11 04:02:40;;;;;;;2.85;1.70;;;15.90;99.90;;;;;;4192025;28;20036;-71
2021/05/11 04:04:41;;;;;;;4.88;1.70;;;15.90;99.90;;;;;;4193454;28;20037;-71
2021/05/11 04:06:45;;;;;;;2.15;1.48;;;15.90;99.90;;;;;;4192134;28;20040;-71
2021/05/11 04:08:55;;;;;;;3.88;1.75;;;15.90;99.90;;;;;;4184435;28;20032;-71
2021/05/11 04:11:00;;;;;;;3.25;1.95;;;15.90;99.90;;;;;;4191683;28;20063;-71
2021/05/11 04:16:14;;;;;;;3.08;1.92;;;15.90;99.90;;;;;;4193422;28;20044;-71
2021/05/11 04:17:46;;;;;;;2.20;1.65;;;15.90;99.90;;;;;;4191038;28;20409;-71
2021/05/11 04:19:47;;;;;;;3.22;1.80;;;15.90;99.90;;;;;;4193635;28;20098;-71
2021/05/11 04:21:48;;;;;;;3.45;1.95;;;15.90;99.90;;;;;;4193565;28;20062;-71
2021/05/11 04:23:50;;;;;;;5.22;2.15;;;15.90;99.90;;;;;;4191787;28;20131;-71
2021/05/11 04:25:51;;;;;;;;;;;15.90;99.90;;;;;;4193859;28;20040;-71
2021/05/11 04:27:51;;;;;;;3.05;1.80;;;15.90;99.90;;;;;;4190683;28;19919;-71
2021/05/11 04:29:57;;;;;;;4.43;2.30;;;15.90;99.90;;;;;;4191747;28;20059;-71
2021/05/11 04:31:57;;;;;;;4.25;2.30;;;16.00;99.90;;;;;;4191612;28;20051;-71
2021/05/11 04:33:58;;;;;;;4.45;2.45;;;15.90;99.90;;;;;;4193251;28;20472;-71
2021/05/11 04:35:59;;;;;;;4.50;2.55;;;15.90;99.90;;;;;;4191200;28;20049;-71
2021/05/11 04:38:00;;;;;;;2.88;2.15;;;15.90;99.90;;;;;;4188811;28;20111;-71
2021/05/11 04:40:00;;;;;;;2.92;1.92;;;15.80;99.90;;;;;;4190399;28;20055;-71
2021/05/11 04:42:01;;;;;;;3.05;1.85;;;15.90;99.90;;;;;;4192775;28;20051;-71
2021/05/11 04:44:04;;;;;;;3.45;2.13;;;15.90;99.90;;;;;;4192121;28;20086;-71
2021/05/11 04:48:18;;;;;;;4.15;2.40;;;15.80;99.90;;;;;;4192668;28;20060;-71
2021/05/11 04:50:23;;;;;;;6.15;2.42;;;15.80;99.90;;;;;;4191505;28;20047;-71
2021/05/11 04:52:24;;;;;;;3.45;2.05;;;15.70;99.90;;;;;;4192509;28;20055;-71
2021/05/11 04:54:24;;;;;;;6.28;2.60;;;15.70;99.90;;;;;;4190882;28;20037;-71
2021/05/11 04:56:25;;;;;;;5.55;2.30;;;15.70;99.90;;;;;;4190961;28;20101;-71
2021/05/11 04:58:25;;;;;;;3.38;2.10;;;15.70;99.90;;;;;;4191088;28;20115;-71
2021/05/11 05:00:26;;;;;;;3.53;2.20;;;15.60;99.90;;;;;;4191571;28;20087;-71
2021/05/11 05:02:27;;;;;;;4.85;2.30;;;15.60;99.90;;;;;;4192120;28;20111;-71
2021/05/11 05:04:30;;;;;;;6.63;2.90;;;15.60;99.90;;;;;;4192029;28;20020;-71
2021/05/11 05:06:30;;;;;;;3.53;2.13;;;15.60;99.90;;;;;;4191887;28;20036;-71
2021/05/11 05:08:31;;;;;;;5.55;2.88;;;15.50;99.90;;;;;;4190198;28;20039;-71
2021/05/11 05:10:32;;;;;;;5.10;2.75;;;15.50;99.90;;;;;;4190009;28;20064;-71
2021/05/11 05:12:33;;;;;;;5.30;2.13;;;15.50;99.90;;;;;;4192158;28;20036;-71
2021/05/11 05:14:34;;;;;;;3.35;2.20;;;15.50;99.90;;;;;;4191766;28;20029;-71
2021/05/11 05:16:35;;;;;;;4.53;2.42;;;15.50;99.90;;;;;;4190742;28;20040;-71
2021/05/11 05:18:36;;;;;;;7.40;2.67;;;15.50;99.90;;;;;;4185601;28;20045;-71
2021/05/11 05:20:36;;;;;;;5.22;2.70;;;15.50;99.90;;;;;;4190874;28;20086;-71
2021/05/11 05:22:37;;;;;;;3.03;2.15;;;15.50;99.90;;;;;;4183506;28;20036;-70
2021/05/11 05:24:48;;;;;;;8.30;2.90;;;15.50;99.90;;;;;;4189408;28;20032;-70
2021/05/11 05:26:51;;;;;;;4.25;2.42;;;15.50;99.90;;;;;;4188648;28;20067;-70
2021/05/11 05:28:52;;;;;;;2.72;2.20;;;15.50;99.90;;;;;;4192002;28;20044;-71
2021/05/11 05:30:53;;;;;;;4.82;2.45;;;15.60;99.90;;;;;;4193608;28;20074;-71
2021/05/11 05:32:56;;;;;;;4.70;2.55;;;15.60;99.90;;;;;;4192128;28;20051;-71
2021/05/11 05:34:57;;;;;;;4.95;3.15;;;15.60;99.90;;;;;;4168338;28;20161;-71
2021/05/11 05:36:58;;;;;;;5.97;2.90;;;15.60;99.90;;;;;;4192834;28;20102;-71
2021/05/11 05:38:59;;;;;;;4.78;2.85;;;15.50;99.90;;;;;;4191369;28;20032;-71
2021/05/11 05:41:10;;;;;;;6.55;2.95;;;15.50;99.90;;;;;;4193221;28;20039;-71
2021/05/11 05:43:11;;;;;;;7.10;3.40;;;15.50;99.90;;;;;;4194740;28;20123;-71
2021/05/11 05:45:11;;;;;;;5.82;2.95;;;15.50;99.90;;;;;;4192857;28;20392;-71
2021/05/11 05:47:12;;;;;;;4.72;2.90;;;15.50;99.90;;;;;;4193473;28;20217;-71
2021/05/11 05:49:12;;;;;;;5.32;2.97;;;15.60;99.90;;;;;;4192908;28;20035;-71
2021/05/11 05:51:14;;;;;;;3.85;2.42;;;15.60;99.90;;;;;;4181882;28;20032;-72
2021/05/11 05:53:22;;;;;;;4.67;2.77;;;15.60;99.90;;;;;;4193800;28;20042;-72
2021/05/11 05:55:23;;;;;;;4.47;2.80;;;15.60;99.90;;;;;;4197595;28;20074;-72
2021/05/11 05:57:24;;;;;;;4.85;2.95;;;15.60;99.90;;;;;;4200490;28;20119;-72
2021/05/11 05:59:24;;;;;;;7.13;3.20;;;15.60;99.90;;;;;;4200726;28;20135;-72
2021/05/11 06:01:29;;;;;;;7.65;3.58;;;15.60;99.90;;;;;;4182571;28;20027;-71
2021/05/11 06:03:36;;;;;;;5.55;3.40;;;15.60;99.90;;;;;;4189714;28;20745;-72
2021/05/11 06:05:37;;;;;;;5.45;3.03;;;15.60;99.90;;;;;;4190918;28;20126;-72
2021/05/11 06:07:38;;;;;;;4.97;3.30;;;15.60;99.90;;;;;;4181632;28;20037;-72
2021/05/11 06:09:39;;;;;;;5.28;3.03;;;15.60;99.90;;;;;;4195253;28;20047;-72
2021/05/11 06:11:47;;;;;;;5.63;2.80;;;15.60;99.90;;;;;;4197503;28;20052;-73
2021/05/11 06:18:23;;;;;;;5.07;2.97;;;16.00;99.90;;;;;;4195987;28;20419;-73
2021/05/11 06:20:24;;;;;;;5.75;3.10;;;16.20;99.90;;;;;;4198892;28;20043;-72
2021/05/11 06:22:26;;;;;;;3.85;2.70;;;16.20;99.90;;;;;;4199384;28;20554;-72
2021/05/11 06:24:26;;;;;;;5.70;2.53;;;16.30;99.90;;;;;;4186557;28;20035;-72
2021/05/11 06:26:27;;;;;;;4.40;2.67;;;16.40;99.90;;;;;;4191422;28;20028;-72
2021/05/11 06:28:28;;;;;;;4.50;2.60;;;16.50;99.90;;;;;;4192946;28;20590;-72
2021/05/11 06:30:30;;;;;;;4.07;2.65;;;16.50;99.90;;;;;;4189294;28;20032;-73
2021/05/11 06:32:32;;;;;;;3.67;2.08;;;16.60;99.90;;;;;;4193555;28;20028;-73
2021/05/11 06:34:32;;;;;;;3.97;2.47;;;16.70;99.90;;;;;;4192087;28;20776;-72
2021/05/11 06:36:33;;;;;;;3.72;2.58;;;16.80;99.90;;;;;;4191533;28;20116;-73
2021/05/11 06:38:34;;;;;;;3.20;2.20;;;16.80;99.90;;;;;;4188432;28;20444;-73
2021/05/11 06:40:37;;;;;;;5.10;2.47;;;16.90;99.90;;;;;;4190504;28;20037;-72
2021/05/11 06:42:39;;;;;;;4.85;2.10;;;16.90;99.90;;;;;;4188970;28;20391;-73
2021/05/11 06:53:28;;;;;;;4.40;2.30;;;16.80;99.90;;;;;;4191046;28;19948;-73
2021/05/11 06:55:28;;;;;;;3.83;2.58;;;16.80;99.90;;;;;;4189810;28;20052;-72
2021/05/11 06:57:29;;;;;;;5.82;2.22;;;16.80;99.90;;;;;;4173163;28;20033;-73
2021/05/11 06:59:30;;;;;;;4.35;2.38;;;16.80;99.90;;;;;;4190745;28;20086;-73
2021/05/11 07:01:31;;;;;;;4.43;2.47;;;16.70;99.90;;;;;;4194653;28;20047;-72
2021/05/11 07:03:32;;;;;;;9.15;3.10;;;16.70;99.90;;;;;;4189594;28;20358;-72
2021/05/11 07:05:35;;;;;;;4.35;2.60;;;16.70;99.90;;;;;;4189406;28;20119;-72
2021/05/11 07:07:36;;;;;;;4.25;2.40;;;16.70;99.90;;;;;;4192819;28;20362;-72
2021/05/11 07:13:44;;;;;;;4.07;2.60;;;16.60;99.90;;;;;;4189526;28;20083;-73
2021/05/11 07:15:46;;;;;;;3.35;2.22;;;16.70;99.90;;;;;;4172978;28;20029;-72
2021/05/11 07:17:47;;;;;;;3.35;2.28;;;16.60;99.90;;;;;;4190569;28;20028;-73
2021/05/11 07:19:48;;;;;;;4.65;2.38;;;16.70;99.90;;;;;;4190022;28;20395;-73
2021/05/11 07:21:49;;;;;;;5.65;2.45;;;16.70;99.90;;;;;;4190115;28;20125;-72
2021/05/11 07:23:49;;;;;;;4.32;2.28;;;16.70;99.90;;;;;;4193691;28;20578;-72
2021/05/11 07:30:12;;;;;;;5.57;2.40;;;16.70;99.90;;;;;;4191998;28;20036;-72
2021/05/11 07:32:13;;;;;;;5.85;2.58;;;16.60;99.90;;;;;;4193251;28;20032;-72
2021/05/11 07:34:16;;;;;;;4.30;2.00;;;16.60;99.90;;;;;;4177937;28;20043;-72
2021/05/11 07:36:17;;;;;;;8.10;3.05;;;16.60;99.90;;;;;;4204275;28;20485;-73
2021/05/11 07:38:18;;;;;;;6.35;2.63;;;16.60;99.90;;;;;;4193925;28;20091;-73
2021/05/11 07:40:19;;;;;;;4.55;2.10;;;16.60;99.90;;;;;;4191511;28;20036;-72
2021/05/11 07:42:19;;;;;;;3.40;2.10;;;16.60;99.90;;;;;;4192350;28;20040;-73
2021/05/11 07:44:20;;;;;;;4.80;2.20;;;16.60;99.90;;;;;;4196660;28;20040;-73
2021/05/11 07:46:45;;;;;;;5.88;2.60;;;16.60;99.90;;;;;;4191965;28;20561;-73
2021/05/11 08:15:54;;;;;;;5.43;2.47;;;16.80;99.90;;;;;;4190985;28;20021;-73
2021/05/11 08:18:03;;;;;;;;;;;16.90;99.90;;;;;;4196071;28;20035;-73
2021/05/11 08:20:16;;;;;;;6.30;2.70;;;16.90;99.90;;;;;;4196130;28;19908;-72
2021/05/11 08:28:57;;;;;;;6.55;3.15;;;17.10;99.90;;;;;;4190303;28;20565;-70
2021/05/11 08:30:58;;;;;;;3.83;2.30;;;17.10;99.90;;;;;;4194487;28;20112;-70
2021/05/11 08:32:58;;;;;;;6.10;2.95;;;17.30;99.90;;;;;;4187323;28;20048;-70
2021/05/11 08:34:59;;;;;;;7.07;2.63;;;17.30;99.90;;;;;;4191364;28;20035;-70
2021/05/11 08:36:59;;;;;;;4.72;2.80;;;17.40;99.90;;;;;;4192082;28;20114;-70
2021/05/11 08:39:00;;;;;;;4.95;2.28;;;17.50;99.90;;;;;;4194649;28;20029;-70
2021/05/11 08:41:02;;;;;;;6.38;2.60;;;17.60;99.90;;;;;;4194988;28;20107;-70
2021/05/11 08:43:08;;;;;;;5.82;2.80;;;17.60;99.90;;;;;;4194966;28;20060;-70
2021/05/11 08:45:11;;;;;;;5.57;2.75;;;17.70;99.90;;;;;;4185720;28;20045;-70
2021/05/11 08:47:12;;;;;;;5.38;2.38;;;17.80;99.90;;;;;;4187162;28;20036;-70
2021/05/11 08:49:14;;;;;;;4.22;2.55;;;17.80;99.90;;;;;;4191782;28;20518;-70
2021/05/11 08:51:21;;;;;;;6.60;2.80;;;17.80;99.90;;;;;;4187287;28;20120;-70
2021/05/11 09:23:28;;;;;;;2.90;1.95;;;18.10;99.90;;;;;;4190077;28;20181;-70
2021/05/11 09:23:34;;;;;;;3.47;2.30;;;18.10;99.90;;;;;;4188733;28;20259;-70
2021/05/11 09:28:48;;;;;;;6.03;2.17;;;18.30;99.90;;;;;;4196759;28;20033;-70
2021/05/11 09:31:16;;;;;;;6.10;2.42;;;18.40;99.90;;;;;;4189908;28;20036;-70
2021/05/11 09:52:26;;;;;;;4.95;2.83;;;18.80;99.90;;;;;;4188714;28;20040;-70
2021/05/11 09:58:00;;;;;;;6.07;3.15;;;19.00;99.90;;;;;;4192263;28;20037;-70
2021/05/11 10:00:54;;;;;;;4.95;2.67;;;19.00;99.90;;;;;;4182262;28;20040;-70
2021/05/11 10:37:27;;;;;;;11.65;3.40;;;17.80;99.90;;;;;;4187497;28;20074;-70
2021/05/11 10:39:24;;;;;;;8.90;3.55;;;17.70;99.90;;;;;;4191340;28;20029;-70
2021/05/11 10:46:47;;;;;;;7.85;3.20;;;17.40;99.90;;;;;;4189403;28;20063;-70
2021/05/11 10:48:47;;;;;;;6.05;3.15;;;17.30;99.90;;;;;;4189240;28;20028;-70
2021/05/11 10:51:03;;;;;;;8.13;2.90;;;17.30;99.90;;;;;;4191109;28;21195;-70
2021/05/11 10:53:31;;;;;;;7.65;3.33;;;17.20;99.90;;;;;;4188952;28;20581;-70
2021/05/11 10:55:38;;;;;;;7.72;3.70;;;17.30;99.90;;;;;;4190051;28;20048;-70
2021/05/11 10:57:54;;;;;;;11.73;3.70;;;17.10;99.90;;;;;;4192266;28;20047;-70
2021/05/11 11:04:47;;;;;;;5.72;2.70;;;17.00;99.90;;;;;;4165697;28;20048;-70
2021/05/11 11:06:57;;;;;;;7.32;3.80;;;17.00;99.90;;;;;;4195900;28;20051;-70
2021/05/11 11:09:08;;;;;;;6.60;3.00;;;17.00;99.90;;;;;;4193240;28;20508;-70
2021/05/11 11:11:16;;;;;;;7.60;3.20;;;17.10;99.90;;;;;;4192280;28;20126;-70
2021/05/11 11:13:18;;;;;;;7.53;3.97;;;17.10;99.90;;;;;;4195149;28;20036;-70
2021/05/11 11:15:19;;;;;;;6.95;3.60;;;17.10;99.90;;;;;;4192408;28;20052;-71
2021/05/11 11:17:20;;;;;;;5.03;3.25;;;17.00;99.90;;;;;;4194490;28;20044;-70
2021/05/11 11:19:20;;;;;;;7.35;3.13;;;17.10;99.90;;;;;;4192538;28;20033;-70
2021/05/11 11:23:44;;;;;;;4.57;3.05;;;17.10;99.90;;;;;;4193650;28;20024;-70
2021/05/11 11:26:09;;;;;;;5.03;2.70;;;17.20;99.90;;;;;;4193955;28;20041;-70
2021/05/11 11:28:10;;;;;;;4.97;2.58;;;17.20;99.90;;;;;;4191433;28;20035;-70
2021/05/11 11:30:12;;;;;;;7.47;3.38;;;17.30;99.90;;;;;;4176898;28;20462;-70
2021/05/11 11:32:20;;;;;;;6.65;3.28;;;17.30;99.90;;;;;;4193635;28;20155;-70
2021/05/11 11:34:25;;;;;;;7.22;3.40;;;17.30;99.90;;;;;;4195808;28;20028;-70
2021/05/11 11:36:30;;;;;;;6.85;3.30;;;17.30;99.90;;;;;;4195089;28;20032;-70
2021/05/11 11:38:30;;;;;;;9.40;3.58;;;17.30;99.90;;;;;;4192226;28;20044;-70
2021/05/11 11:40:31;;;;;;;6.35;3.28;;;17.30;99.90;;;;;;4193897;28;20496;-70
2021/05/11 11:42:39;;;;;;;5.85;3.08;;;17.30;99.90;;;;;;4192833;28;20086;-70
2021/05/11 11:44:39;;;;;;;6.40;3.20;;;17.30;99.90;;;;;;4194691;28;20121;-70
2021/05/11 11:46:40;;;;;;;9.63;3.95;;;17.30;99.90;;;;;;4194347;28;20041;-70
2021/05/11 11:48:53;;;;;;;8.48;4.00;;;17.30;99.90;;;;;;4194231;28;20032;-71
2021/05/11 11:50:56;;;;;;;5.75;3.42;;;17.20;99.90;;;;;;4191421;28;20083;-70
2021/05/11 11:53:06;;;;;;;11.43;4.03;;;17.20;99.90;;;;;;4192695;28;20048;-70
2021/05/11 12:00:02;;;;;;;7.70;3.90;;;17.00;99.90;;;;;;4189990;28;20036;-70
2021/05/11 12:02:04;;;;;;;8.05;4.13;;;16.90;99.90;;;;;;4194801;28;20044;-70
2021/05/11 12:04:05;;;;;;;8.65;4.03;;;16.80;99.90;;;;;;4196110;28;20032;-70
2021/05/11 12:06:06;;;;;;;11.32;4.03;;;16.70;99.90;;;;;;4194799;28;20109;-70
2021/05/11 12:08:26;;;;;;;10.77;3.90;;;16.60;99.90;;;;;;4193447;28;20480;-70
2021/05/11 12:10:28;;;;;;;6.90;3.50;;;16.50;99.90;;;;;;4194319;28;20098;-70
2021/05/11 12:12:29;;;;;;;9.65;3.50;;;16.50;99.90;;;;;;4191220;28;20036;-70
2021/05/11 12:14:30;;;;;;;7.22;3.22;;;16.50;99.90;;;;;;4192659;28;20044;-70
2021/05/11 12:16:30;;;;;;;6.10;3.00;;;16.40;99.90;;;;;;4175975;28;20501;-70
2021/05/11 12:18:32;;;;;;;6.97;3.08;;;16.40;99.90;;;;;;4197220;28;20522;-70
2021/05/11 12:20:34;;;;;;;7.30;3.10;;;16.40;99.90;;;;;;4193536;28;20051;-70
2021/05/11 12:22:34;;;;;;;5.45;2.92;;;16.30;99.90;;;;;;4192091;28;20056;-70
2021/05/11 12:24:37;;;;;;;8.05;3.05;;;16.40;99.90;;;;;;4192308;28;20479;-70
2021/05/11 12:26:43;;;;;;;5.65;3.10;;;16.30;99.90;;;;;;4191780;28;20044;-70
2021/05/11 12:28:44;;;;;;;4.55;3.17;;;16.40;99.90;;;;;;4192599;28;20388;-70
2021/05/11 12:30:47;;;;;;;8.52;3.28;;;16.40;99.90;;;;;;4195917;28;20025;-70
2021/05/11 12:32:47;;;;;;;7.07;2.60;;;16.30;99.90;;;;;;4189613;28;20507;-70
2021/05/11 12:35:12;;;;;;;5.13;2.72;;;16.40;99.90;;;;;;4192071;28;20036;-70
2021/05/11 12:37:13;;;;;;;6.57;3.28;;;16.50;99.90;;;;;;4191154;28;20044;-70
2021/05/11 12:41:39;;;;;;;8.75;4.35;;;16.50;99.90;;;;;;4193853;28;20115;-70
2021/05/11 12:43:49;;;;;;;8.73;4.30;;;16.50;99.90;;;;;;4193088;28;20051;-70
2021/05/11 12:45:51;;;;;;;5.85;3.05;;;16.40;99.90;;;;;;4193464;28;20098;-70
2021/05/11 12:47:59;;;;;;;8.23;3.33;;;16.40;99.90;;;;;;4195850;28;20571;-70
2021/05/11 12:50:15;;;;;;;8.35;3.50;;;16.50;99.90;;;;;;4192954;28;20024;-70
2021/05/11 12:52:27;;;;;;;11.05;4.50;;;16.50;99.90;;;;;;4191971;28;20044;-70
2021/05/11 12:54:36;;;;;;;9.77;4.40;;;16.50;99.90;;;;;;4192747;28;20115;-70
2021/05/11 13:02:02;;;;;;;7.00;3.58;;;16.40;99.90;;;;;;4195604;28;20036;-70
2021/05/11 13:04:24;;;;;;;8.77;4.85;;;16.40;99.90;;;;;;4191920;28;20029;-70
2021/05/11 13:23:20;;;;;;;9.20;4.45;;;16.60;99.90;;;;;;4190891;28;20032;-70
2021/05/11 13:25:12;;;;;;;9.70;3.83;;;16.70;99.90;;;;;;4185907;28;20044;-70
2021/05/11 13:31:44;;;;;;;6.43;4.10;;;16.80;99.90;;;;;;4190760;28;20040;-70
2021/05/11 13:35:45;;;;;;;10.07;4.63;;;16.90;99.90;;;;;;4191957;28;20116;-70
2021/05/11 13:37:46;;;;;;;9.80;5.35;;;17.00;99.90;;;;;;4191457;28;20039;-70
2021/05/11 13:39:46;;;;;;;9.38;5.03;;;17.00;99.90;;;;;;4190537;28;20065;-70
2021/05/11 13:41:47;;;;;;;7.10;5.00;;;16.90;99.90;;;;;;4189797;28;20098;-70
2021/05/11 13:43:47;;;;;;;7.38;4.72;;;16.90;99.90;;;;;;4190146;28;20068;-70
2021/05/11 13:45:48;;;;;;;7.18;4.70;;;17.00;99.90;;;;;;4191764;28;20589;-70
2021/05/11 13:48:01;;;;;;;9.68;4.43;;;17.00;99.90;;;;;;4194840;28;20032;-70
2021/05/11 13:50:04;;;;;;;7.13;4.65;;;17.00;99.90;;;;;;4186546;28;20033;-70
2021/05/11 13:52:05;;;;;;;10.30;5.85;;;17.00;99.90;;;;;;4173720;28;20041;-70
2021/05/11 13:54:07;;;;;;;10.82;5.22;;;17.00;99.90;;;;;;4191615;28;20171;-70
2021/05/11 14:02:56;;;;;;;5.68;4.45;;;17.00;99.90;;;;;;4192734;28;20032;-70
2021/05/11 14:04:56;;;;;;;8.93;4.43;;;17.00;99.90;;;;;;4189725;28;20518;-70
2021/05/11 14:06:57;;;;;;;7.82;4.30;;;17.00;99.90;;;;;;4193456;28;20059;-70
2021/05/11 14:08:58;;;;;;;7.18;4.57;;;17.00;99.90;;;;;;4190031;28;20087;-70
2021/05/11 14:10:59;;;;;;;6.70;4.60;;;17.00;99.90;;;;;;4193785;28;20044;-70
2021/05/11 14:13:00;;;;;;;6.70;4.05;;;17.00;99.90;;;;;;4192068;28;20057;-70
2021/05/11 14:15:00;;;;;;;10.10;5.03;;;17.10;99.90;;;;;;4192250;28;20029;-70
2021/05/11 14:17:01;;;;;;;8.30;4.80;;;17.00;99.90;;;;;;4190004;28;20036;-70
2021/05/11 14:19:02;;;;;;;11.02;5.05;;;17.00;99.90;;;;;;4191514;28;20028;-70
2021/05/11 14:21:02;;;;;;;9.50;5.40;;;17.00;99.90;;;;;;4192879;28;20623;-70
2021/05/11 14:23:03;;;;;;;10.63;5.20;;;16.90;99.90;;;;;;4188451;28;20048;-70
2021/05/11 14:25:04;;;;;;;9.10;4.80;;;16.90;99.90;;;;;;4191996;28;20025;-70
2021/05/11 14:27:06;;;;;;;8.98;4.75;;;16.90;99.90;;;;;;4192486;28;20419;-70
2021/05/11 14:29:07;;;;;;;7.25;4.72;;;16.90;99.90;;;;;;4194366;28;20056;-70
2021/05/11 14:31:07;;;;;;;8.50;4.78;;;16.90;99.90;;;;;;4191910;28;20098;-70
2021/05/11 14:33:08;;;;;;;7.95;4.40;;;16.90;99.90;;;;;;4189745;28;20040;-70
2021/05/11 14:35:09;;;;;;;7.35;4.53;;;16.90;99.90;;;;;;4194577;28;20109;-70
2021/05/11 14:37:10;;;;;;;9.63;5.25;;;16.90;99.90;;;;;;4189003;28;20424;-70
2021/05/11 14:39:11;;;;;;;10.60;5.25;;;16.90;99.90;;;;;;4190683;28;20042;-70
2021/05/11 14:41:11;;;;;;;7.70;4.90;;;16.80;99.90;;;;;;4195321;28;20041;-70
2021/05/11 14:43:12;;;;;;;8.77;5.63;;;16.90;99.90;;;;;;4193982;28;20048;-70
2021/05/11 14:45:14;;;;;;;8.23;4.82;;;16.80;99.90;;;;;;4192684;28;20552;-70
2021/05/11 14:47:15;;;;;;;9.25;4.72;;;16.70;99.90;;;;;;4197012;28;20124;-70
2021/05/11 14:49:34;;;;;;;11.45;5.75;;;16.70;99.90;;;;;;4192541;28;20174;-71